sensor_id;sensor_type;location;lat;lon;timestamp;temperature;humidity
59307;DHT22;47983;53.016;-2.260;2022-11-02T00:01:55;8.20;99.90
59307;DHT22;47983;53.016;-2.260;2022-11-02T00:04:22;8.30;99.90
59307;DHT22;47983;53.016;-2.260;2022-11-02T00:06:50;8.30;99.90
59307;DHT22;47983;53.016;-2.260;2022-11-02T00:09:17;8.30;99.90
59307;DHT22;47983;53.016;-2.260;2022-11-02T00:11:45;8.30;99.90
59307;DHT22;47983;53.016;-2.260;2022-11-02T00:14:12;8.20;99.90
59307;DHT22;47983;53.016;-2.260;2022-11-02T00:16:40;8.20;99.90
59307;DHT22;47983;53.016;-2.260;2022-11-02T00:19:08;8.10;99.90
59307;DHT22;47983;53.016;-2.260;2022-11-02T00:21:37;8.10;99.90
59307;DHT22;47983;53.016;-2.260;2022-11-02T00:24:05;8.00;99.90
59307;DHT22;47983;53.016;-2.260;2022-11-02T00:26:35;8.00;99.90
59307;DHT22;47983;53.016;-2.260;2022-11-02T00:29:03;7.90;99.90
59307;DHT22;47983;53.016;-2.260;2022-11-02T00:31:31;7.90;99.90
59307;DHT22;47983;53.016;-2.260;2022-11-02T00:33:59;7.80;99.90
59307;DHT22;47983;53.016;-2.260;2022-11-02T00:36:28;7.80;99.90
59307;DHT22;47983;53.016;-2.260;2022-11-02T00:38:57;7.70;99.90
59307;DHT22;47983;53.016;-2.260;2022-11-02T00:41:25;7.60;99.90
59307;DHT22;47983;53.016;-2.260;2022-11-02T00:43:53;7.60;99.90
59307;DHT22;47983;53.016;-2.260;2022-11-02T00:46:20;7.60;99.90
59307;DHT22;47983;53.016;-2.260;2022-11-02T00:48:48;7.50;99.90
59307;DHT22;47983;53.016;-2.260;2022-11-02T00:51:16;7.50;99.90
59307;DHT22;47983;53.016;-2.260;2022-11-02T00:53:44;7.40;99.90
59307;DHT22;47983;53.016;-2.260;2022-11-02T00:56:12;7.40;99.90
59307;DHT22;47983;53.016;-2.260;2022-11-02T00:58:40;7.30;99.90
59307;DHT22;47983;53.016;-2.260;2022-11-02T01:01:09;7.30;99.90
59307;DHT22;47983;53.016;-2.260;2022-11-02T01:03:37;7.30;99.90
59307;DHT22;47983;53.016;-2.260;2022-11-02T01:06:09;7.30;99.90
59307;DHT22;47983;53.016;-2.260;2022-11-02T01:08:37;7.30;99.90
59307;DHT22;47983;53.016;-2.260;2022-11-02T01:11:23;7.20;99.90
59307;DHT22;47983;53.016;-2.260;2022-11-02T01:13:51;7.20;99.90
59307;DHT22;47983;53.016;-2.260;2022-11-02T01:16:20;7.20;99.90
59307;DHT22;47983;53.016;-2.260;2022-11-02T01:18:55;7.10;99.90
59307;DHT22;47983;53.016;-2.260;2022-11-02T01:21:23;7.10;99.90
59307;DHT22;47983;53.016;-2.260;2022-11-02T01:23:51;7.10;99.90
59307;DHT22;47983;53.016;-2.260;2022-11-02T01:26:19;7.10;99.90
59307;DHT22;47983;53.016;-2.260;2022-11-02T01:28:47;7.10;99.90
59307;DHT22;47983;53.016;-2.260;2022-11-02T01:31:14;7.10;99.90
59307;DHT22;47983;53.016;-2.260;2022-11-02T01:33:43;7.10;99.90
59307;DHT22;47983;53.016;-2.260;2022-11-02T01:36:13;7.10;99.90
59307;DHT22;47983;53.016;-2.260;2022-11-02T01:38:41;7.00;99.90
59307;DHT22;47983;53.016;-2.260;2022-11-02T01:41:10;7.00;99.90
59307;DHT22;47983;53.016;-2.260;2022-11-02T01:43:47;7.00;99.90
59307;DHT22;47983;53.016;-2.260;2022-11-02T01:46:22;7.00;99.90
59307;DHT22;47983;53.016;-2.260;2022-11-02T01:48:59;7.00;99.90
59307;DHT22;47983;53.016;-2.260;2022-11-02T01:51:54;7.10;99.90
59307;DHT22;47983;53.016;-2.260;2022-11-02T01:54:30;7.00;99.90
59307;DHT22;47983;53.016;-2.260;2022-11-02T01:57:04;7.00;99.90
59307;DHT22;47983;53.016;-2.260;2022-11-02T01:59:37;7.00;99.90
59307;DHT22;47983;53.016;-2.260;2022-11-02T02:02:14;7.00;99.90
59307;DHT22;47983;53.016;-2.260;2022-11-02T02:04:43;7.00;99.90
59307;DHT22;47983;53.016;-2.260;2022-11-02T02:07:12;7.00;99.90
59307;DHT22;47983;53.016;-2.260;2022-11-02T02:09:41;6.90;99.90
59307;DHT22;47983;53.016;-2.260;2022-11-02T02:12:13;6.90;99.90
59307;DHT22;47983;53.016;-2.260;2022-11-02T02:14:42;6.90;99.90
59307;DHT22;47983;53.016;-2.260;2022-11-02T02:17:27;6.80;99.90
59307;DHT22;47983;53.016;-2.260;2022-11-02T02:33:50;6.50;99.90
59307;DHT22;47983;53.016;-2.260;2022-11-02T02:36:30;6.50;99.90
59307;DHT22;47983;53.016;-2.260;2022-11-02T02:39:11;6.40;99.90
59307;DHT22;47983;53.016;-2.260;2022-11-02T02:41:45;6.40;99.90
59307;DHT22;47983;53.016;-2.260;2022-11-02T02:44:20;6.20;99.90
59307;DHT22;47983;53.016;-2.260;2022-11-02T02:46:55;6.20;99.90
59307;DHT22;47983;53.016;-2.260;2022-11-02T02:49:28;6.30;99.90
59307;DHT22;47983;53.016;-2.260;2022-11-02T02:51:59;6.20;99.90
59307;DHT22;47983;53.016;-2.260;2022-11-02T02:54:32;6.20;99.90
59307;DHT22;47983;53.016;-2.260;2022-11-02T02:57:11;6.10;99.90
59307;DHT22;47983;53.016;-2.260;2022-11-02T02:59:45;6.10;99.90
59307;DHT22;47983;53.016;-2.260;2022-11-02T03:02:24;6.10;99.90
59307;DHT22;47983;53.016;-2.260;2022-11-02T03:04:54;6.10;99.90
59307;DHT22;47983;53.016;-2.260;2022-11-02T03:07:34;6.10;99.90
59307;DHT22;47983;53.016;-2.260;2022-11-02T03:10:16;6.10;99.90
59307;DHT22;47983;53.016;-2.260;2022-11-02T03:15:59;6.20;99.90
59307;DHT22;47983;53.016;-2.260;2022-11-02T03:23:57;6.20;99.90
59307;DHT22;47983;53.016;-2.260;2022-11-02T03:26:36;6.20;99.90
59307;DHT22;47983;53.016;-2.260;2022-11-02T03:29:20;6.30;99.90
59307;DHT22;47983;53.016;-2.260;2022-11-02T03:31:59;6.30;99.90
59307;DHT22;47983;53.016;-2.260;2022-11-02T03:34:40;6.30;99.90
59307;DHT22;47983;53.016;-2.260;2022-11-02T03:37:21;6.40;99.90
59307;DHT22;47983;53.016;-2.260;2022-11-02T03:40:05;6.30;99.90
59307;DHT22;47983;53.016;-2.260;2022-11-02T03:42:34;6.30;99.90
59307;DHT22;47983;53.016;-2.260;2022-11-02T03:45:11;6.30;99.90
59307;DHT22;47983;53.016;-2.260;2022-11-02T03:47:42;6.30;99.90
59307;DHT22;47983;53.016;-2.260;2022-11-02T03:50:13;6.30;99.90
59307;DHT22;47983;53.016;-2.260;2022-11-02T03:52:45;6.30;99.90
59307;DHT22;47983;53.016;-2.260;2022-11-02T03:55:21;6.20;99.90
59307;DHT22;47983;53.016;-2.260;2022-11-02T03:57:53;6.20;99.90
59307;DHT22;47983;53.016;-2.260;2022-11-02T04:00:26;6.20;99.90
59307;DHT22;47983;53.016;-2.260;2022-11-02T04:03:03;6.20;99.90
59307;DHT22;47983;53.016;-2.260;2022-11-02T04:05:38;6.10;99.90
59307;DHT22;47983;53.016;-2.260;2022-11-02T04:08:18;6.20;99.90
59307;DHT22;47983;53.016;-2.260;2022-11-02T04:10:56;6.20;99.90
59307;DHT22;47983;53.016;-2.260;2022-11-02T04:13:44;6.30;99.90
59307;DHT22;47983;53.016;-2.260;2022-11-02T04:16:35;6.20;99.90
59307;DHT22;47983;53.016;-2.260;2022-11-02T04:19:10;6.20;99.90
59307;DHT22;47983;53.016;-2.260;2022-11-02T04:22:02;6.20;99.90
59307;DHT22;47983;53.016;-2.260;2022-11-02T04:24:53;6.20;99.90
59307;DHT22;47983;53.016;-2.260;2022-11-02T04:27:42;6.20;99.90
59307;DHT22;47983;53.016;-2.260;2022-11-02T04:30:10;6.20;99.90
59307;DHT22;47983;53.016;-2.260;2022-11-02T04:32:43;6.20;99.90
59307;DHT22;47983;53.016;-2.260;2022-11-02T04:35:34;6.20;99.90
59307;DHT22;47983;53.016;-2.260;2022-11-02T04:38:02;6.20;99.90
59307;DHT22;47983;53.016;-2.260;2022-11-02T04:40:49;6.10;99.90
59307;DHT22;47983;53.016;-2.260;2022-11-02T04:43:37;6.10;99.90
59307;DHT22;47983;53.016;-2.260;2022-11-02T04:46:04;6.00;99.90
59307;DHT22;47983;53.016;-2.260;2022-11-02T04:48:33;6.00;99.90
59307;DHT22;47983;53.016;-2.260;2022-11-02T04:51:01;6.00;99.90
59307;DHT22;47983;53.016;-2.260;2022-11-02T04:53:30;6.00;99.90
59307;DHT22;47983;53.016;-2.260;2022-11-02T04:55:57;5.90;99.90
59307;DHT22;47983;53.016;-2.260;2022-11-02T04:58:25;6.00;99.90
59307;DHT22;47983;53.016;-2.260;2022-11-02T05:00:53;6.00;99.90
59307;DHT22;47983;53.016;-2.260;2022-11-02T05:03:21;6.00;99.90
59307;DHT22;47983;53.016;-2.260;2022-11-02T05:05:53;6.10;99.90
59307;DHT22;47983;53.016;-2.260;2022-11-02T05:08:22;6.10;99.90
59307;DHT22;47983;53.016;-2.260;2022-11-02T05:10:53;6.10;99.90
59307;DHT22;47983;53.016;-2.260;2022-11-02T05:13:22;6.20;99.90
59307;DHT22;47983;53.016;-2.260;2022-11-02T05:15:56;6.10;99.90
59307;DHT22;47983;53.016;-2.260;2022-11-02T05:18:26;6.10;99.90
59307;DHT22;47983;53.016;-2.260;2022-11-02T05:20:57;6.20;99.90
59307;DHT22;47983;53.016;-2.260;2022-11-02T05:23:28;6.20;99.90
59307;DHT22;47983;53.016;-2.260;2022-11-02T05:25:57;6.20;99.90
59307;DHT22;47983;53.016;-2.260;2022-11-02T05:28:27;6.20;99.90
59307;DHT22;47983;53.016;-2.260;2022-11-02T05:31:00;6.10;99.90
59307;DHT22;47983;53.016;-2.260;2022-11-02T05:33:31;6.20;99.90
59307;DHT22;47983;53.016;-2.260;2022-11-02T05:36:05;6.10;99.90
59307;DHT22;47983;53.016;-2.260;2022-11-02T05:38:35;6.10;99.90
59307;DHT22;47983;53.016;-2.260;2022-11-02T05:41:04;6.10;99.90
59307;DHT22;47983;53.016;-2.260;2022-11-02T05:43:35;6.10;99.90
59307;DHT22;47983;53.016;-2.260;2022-11-02T05:46:05;6.10;99.90
59307;DHT22;47983;53.016;-2.260;2022-11-02T05:48:33;6.10;99.90
59307;DHT22;47983;53.016;-2.260;2022-11-02T05:51:02;6.10;99.90
59307;DHT22;47983;53.016;-2.260;2022-11-02T05:53:31;6.10;99.90
59307;DHT22;47983;53.016;-2.260;2022-11-02T05:56:00;6.10;99.90
59307;DHT22;47983;53.016;-2.260;2022-11-02T05:58:28;6.00;99.90
59307;DHT22;47983;53.016;-2.260;2022-11-02T06:01:04;6.00;99.90
59307;DHT22;47983;53.016;-2.260;2022-11-02T06:03:32;6.10;99.90
59307;DHT22;47983;53.016;-2.260;2022-11-02T06:06:02;6.00;99.90
59307;DHT22;47983;53.016;-2.260;2022-11-02T06:08:32;6.10;99.90
59307;DHT22;47983;53.016;-2.260;2022-11-02T06:11:06;6.00;99.90
59307;DHT22;47983;53.016;-2.260;2022-11-02T06:13:34;5.70;99.90
59307;DHT22;47983;53.016;-2.260;2022-11-02T06:16:04;6.10;99.90
59307;DHT22;47983;53.016;-2.260;2022-11-02T06:18:32;6.10;99.90
59307;DHT22;47983;53.016;-2.260;2022-11-02T06:21:00;6.10;99.90
59307;DHT22;47983;53.016;-2.260;2022-11-02T06:23:28;6.10;99.90
59307;DHT22;47983;53.016;-2.260;2022-11-02T06:25:58;6.10;99.90
59307;DHT22;47983;53.016;-2.260;2022-11-02T06:28:26;6.10;99.90
59307;DHT22;47983;53.016;-2.260;2022-11-02T06:30:55;6.10;99.90
59307;DHT22;47983;53.016;-2.260;2022-11-02T06:33:23;6.10;99.90
59307;DHT22;47983;53.016;-2.260;2022-11-02T06:35:52;6.10;99.90
59307;DHT22;47983;53.016;-2.260;2022-11-02T06:38:20;6.10;99.90
59307;DHT22;47983;53.016;-2.260;2022-11-02T06:40:58;6.10;99.90
59307;DHT22;47983;53.016;-2.260;2022-11-02T06:43:26;6.10;99.90
59307;DHT22;47983;53.016;-2.260;2022-11-02T06:45:55;6.10;99.90
59307;DHT22;47983;53.016;-2.260;2022-11-02T06:48:25;6.10;99.90
59307;DHT22;47983;53.016;-2.260;2022-11-02T06:51:01;6.10;99.90
59307;DHT22;47983;53.016;-2.260;2022-11-02T06:53:29;6.10;99.90
59307;DHT22;47983;53.016;-2.260;2022-11-02T06:55:58;6.10;99.90
59307;DHT22;47983;53.016;-2.260;2022-11-02T06:58:26;6.10;99.90
59307;DHT22;47983;53.016;-2.260;2022-11-02T07:01:04;6.20;99.90
59307;DHT22;47983;53.016;-2.260;2022-11-02T07:03:32;6.20;99.90
59307;DHT22;47983;53.016;-2.260;2022-11-02T07:06:00;6.20;99.90
59307;DHT22;47983;53.016;-2.260;2022-11-02T07:08:28;6.20;99.90
59307;DHT22;47983;53.016;-2.260;2022-11-02T07:10:56;6.20;99.90
59307;DHT22;47983;53.016;-2.260;2022-11-02T07:13:24;6.20;99.90
59307;DHT22;47983;53.016;-2.260;2022-11-02T07:15:53;6.20;99.90
59307;DHT22;47983;53.016;-2.260;2022-11-02T07:18:21;6.20;99.90
59307;DHT22;47983;53.016;-2.260;2022-11-02T07:20:49;6.20;99.90
59307;DHT22;47983;53.016;-2.260;2022-11-02T07:23:17;6.30;99.90
59307;DHT22;47983;53.016;-2.260;2022-11-02T07:25:44;6.30;99.90
59307;DHT22;47983;53.016;-2.260;2022-11-02T07:28:12;6.40;99.90
59307;DHT22;47983;53.016;-2.260;2022-11-02T07:30:40;6.40;99.90
59307;DHT22;47983;53.016;-2.260;2022-11-02T07:33:07;6.50;99.90
59307;DHT22;47983;53.016;-2.260;2022-11-02T07:35:35;6.50;99.90
59307;DHT22;47983;53.016;-2.260;2022-11-02T07:38:04;6.60;99.90
59307;DHT22;47983;53.016;-2.260;2022-11-02T07:40:34;6.60;99.90
59307;DHT22;47983;53.016;-2.260;2022-11-02T07:43:02;6.70;99.90
59307;DHT22;47983;53.016;-2.260;2022-11-02T07:45:46;6.80;99.90
59307;DHT22;47983;53.016;-2.260;2022-11-02T07:48:13;6.80;99.90
59307;DHT22;47983;53.016;-2.260;2022-11-02T07:50:41;6.90;99.90
59307;DHT22;47983;53.016;-2.260;2022-11-02T07:53:09;7.00;99.90
59307;DHT22;47983;53.016;-2.260;2022-11-02T07:55:36;7.00;99.90
59307;DHT22;47983;53.016;-2.260;2022-11-02T07:58:07;7.10;99.90
59307;DHT22;47983;53.016;-2.260;2022-11-02T08:00:38;7.10;99.90
59307;DHT22;47983;53.016;-2.260;2022-11-02T08:03:09;7.20;99.90
59307;DHT22;47983;53.016;-2.260;2022-11-02T08:05:39;7.20;99.90
59307;DHT22;47983;53.016;-2.260;2022-11-02T08:08:09;7.30;99.90
59307;DHT22;47983;53.016;-2.260;2022-11-02T08:10:37;7.30;99.90
59307;DHT22;47983;53.016;-2.260;2022-11-02T08:13:12;7.40;99.90
59307;DHT22;47983;53.016;-2.260;2022-11-02T08:15:40;7.40;99.90
59307;DHT22;47983;53.016;-2.260;2022-11-02T08:18:15;7.40;99.90
59307;DHT22;47983;53.016;-2.260;2022-11-02T08:20:43;7.50;99.90
59307;DHT22;47983;53.016;-2.260;2022-11-02T08:23:13;7.40;99.90
59307;DHT22;47983;53.016;-2.260;2022-11-02T08:25:42;7.50;99.90
59307;DHT22;47983;53.016;-2.260;2022-11-02T08:28:15;7.60;99.90
59307;DHT22;47983;53.016;-2.260;2022-11-02T08:30:43;7.60;99.90
59307;DHT22;47983;53.016;-2.260;2022-11-02T08:33:12;7.60;99.90
59307;DHT22;47983;53.016;-2.260;2022-11-02T08:35:43;7.70;99.90
59307;DHT22;47983;53.016;-2.260;2022-11-02T08:38:12;7.80;99.90
59307;DHT22;47983;53.016;-2.260;2022-11-02T08:40:40;7.80;99.90
59307;DHT22;47983;53.016;-2.260;2022-11-02T08:43:10;7.80;99.90
59307;DHT22;47983;53.016;-2.260;2022-11-02T08:45:40;7.90;99.90
59307;DHT22;47983;53.016;-2.260;2022-11-02T08:48:28;7.90;99.90
59307;DHT22;47983;53.016;-2.260;2022-11-02T08:50:55;8.00;99.90
59307;DHT22;47983;53.016;-2.260;2022-11-02T08:55:51;8.10;99.90
59307;DHT22;47983;53.016;-2.260;2022-11-02T08:58:19;8.20;99.90
59307;DHT22;47983;53.016;-2.260;2022-11-02T09:00:46;8.30;99.90
59307;DHT22;47983;53.016;-2.260;2022-11-02T09:03:15;8.40;99.90
59307;DHT22;47983;53.016;-2.260;2022-11-02T09:05:54;8.40;99.90
59307;DHT22;47983;53.016;-2.260;2022-11-02T09:08:22;8.50;99.90
59307;DHT22;47983;53.016;-2.260;2022-11-02T09:10:58;8.60;99.90
59307;DHT22;47983;53.016;-2.260;2022-11-02T09:13:27;8.70;99.90
59307;DHT22;47983;53.016;-2.260;2022-11-02T09:15:56;8.60;99.90
59307;DHT22;47983;53.016;-2.260;2022-11-02T09:18:24;8.80;99.90
59307;DHT22;47983;53.016;-2.260;2022-11-02T09:20:52;8.80;99.90
59307;DHT22;47983;53.016;-2.260;2022-11-02T09:23:20;9.00;99.90
59307;DHT22;47983;53.016;-2.260;2022-11-02T09:25:48;8.90;99.90
59307;DHT22;47983;53.016;-2.260;2022-11-02T09:28:16;9.10;99.90
59307;DHT22;47983;53.016;-2.260;2022-11-02T09:30:44;9.10;99.90
59307;DHT22;47983;53.016;-2.260;2022-11-02T09:33:12;9.20;99.90
59307;DHT22;47983;53.016;-2.260;2022-11-02T09:35:42;9.30;99.90
59307;DHT22;47983;53.016;-2.260;2022-11-02T09:38:11;9.40;99.90
59307;DHT22;47983;53.016;-2.260;2022-11-02T09:40:44;9.40;99.90
59307;DHT22;47983;53.016;-2.260;2022-11-02T09:46:10;9.60;99.90
59307;DHT22;47983;53.016;-2.260;2022-11-02T09:48:48;9.70;99.90
59307;DHT22;47983;53.016;-2.260;2022-11-02T09:51:21;9.70;99.90
59307;DHT22;47983;53.016;-2.260;2022-11-02T09:56:48;9.90;99.90
59307;DHT22;47983;53.016;-2.260;2022-11-02T09:59:19;9.90;99.90
59307;DHT22;47983;53.016;-2.260;2022-11-02T10:10:58;10.10;99.90
59307;DHT22;47983;53.016;-2.260;2022-11-02T10:13:45;10.10;99.90
59307;DHT22;47983;53.016;-2.260;2022-11-02T10:16:41;10.10;99.90
59307;DHT22;47983;53.016;-2.260;2022-11-02T10:19:14;10.10;99.90
59307;DHT22;47983;53.016;-2.260;2022-11-02T10:21:46;10.20;99.90
59307;DHT22;47983;53.016;-2.260;2022-11-02T10:24:33;10.10;99.90
59307;DHT22;47983;53.016;-2.260;2022-11-02T10:27:05;10.20;99.90
59307;DHT22;47983;53.016;-2.260;2022-11-02T10:32:13;10.20;99.90
59307;DHT22;47983;53.016;-2.260;2022-11-02T10:34:42;10.20;99.90
59307;DHT22;47983;53.016;-2.260;2022-11-02T10:37:34;10.20;99.90
59307;DHT22;47983;53.016;-2.260;2022-11-02T10:48:31;10.30;99.90
59307;DHT22;47983;53.016;-2.260;2022-11-02T10:51:09;10.40;99.90
59307;DHT22;47983;53.016;-2.260;2022-11-02T10:53:41;10.40;99.90
59307;DHT22;47983;53.016;-2.260;2022-11-02T10:56:20;10.40;99.90
59307;DHT22;47983;53.016;-2.260;2022-11-02T10:59:14;10.40;99.90
59307;DHT22;47983;53.016;-2.260;2022-11-02T11:02:02;10.50;99.90
59307;DHT22;47983;53.016;-2.260;2022-11-02T11:04:31;10.50;99.90
59307;DHT22;47983;53.016;-2.260;2022-11-02T11:07:25;10.60;99.90
59307;DHT22;47983;53.016;-2.260;2022-11-02T11:09:55;10.70;99.90
59307;DHT22;47983;53.016;-2.260;2022-11-02T11:12:30;10.80;99.90
59307;DHT22;47983;53.016;-2.260;2022-11-02T11:15:00;10.90;99.90
59307;DHT22;47983;53.016;-2.260;2022-11-02T11:17:51;11.10;99.90
59307;DHT22;47983;53.016;-2.260;2022-11-02T11:20:40;11.20;99.90
59307;DHT22;47983;53.016;-2.260;2022-11-02T11:23:15;11.30;99.90
59307;DHT22;47983;53.016;-2.260;2022-11-02T11:26:02;11.40;99.90
59307;DHT22;47983;53.016;-2.260;2022-11-02T11:28:39;11.60;99.90
59307;DHT22;47983;53.016;-2.260;2022-11-02T11:31:18;11.60;99.90
59307;DHT22;47983;53.016;-2.260;2022-11-02T11:33:52;11.80;99.90
59307;DHT22;47983;53.016;-2.260;2022-11-02T11:36:41;11.90;99.90
59307;DHT22;47983;53.016;-2.260;2022-11-02T11:39:27;12.00;99.90
59307;DHT22;47983;53.016;-2.260;2022-11-02T11:41:56;12.00;99.90
59307;DHT22;47983;53.016;-2.260;2022-11-02T11:44:24;11.90;99.90
59307;DHT22;47983;53.016;-2.260;2022-11-02T11:46:55;11.80;99.90
59307;DHT22;47983;53.016;-2.260;2022-11-02T11:49:32;11.80;99.90
59307;DHT22;47983;53.016;-2.260;2022-11-02T11:52:24;11.80;99.90
59307;DHT22;47983;53.016;-2.260;2022-11-02T11:55:00;11.90;99.90
59307;DHT22;47983;53.016;-2.260;2022-11-02T11:57:31;11.90;99.90
59307;DHT22;47983;53.016;-2.260;2022-11-02T12:00:00;11.90;99.90
59307;DHT22;47983;53.016;-2.260;2022-11-02T12:02:33;11.90;99.90
59307;DHT22;47983;53.016;-2.260;2022-11-02T12:05:17;12.00;99.90
59307;DHT22;47983;53.016;-2.260;2022-11-02T12:10:50;12.00;99.90
59307;DHT22;47983;53.016;-2.260;2022-11-02T12:13:50;12.00;99.90
59307;DHT22;47983;53.016;-2.260;2022-11-02T12:24:54;12.30;99.90
59307;DHT22;47983;53.016;-2.260;2022-11-02T12:38:33;12.40;99.90
59307;DHT22;47983;53.016;-2.260;2022-11-02T12:41:02;12.40;99.90
59307;DHT22;47983;53.016;-2.260;2022-11-02T12:54:56;12.60;99.90
59307;DHT22;47983;53.016;-2.260;2022-11-02T12:57:28;12.60;99.90
59307;DHT22;47983;53.016;-2.260;2022-11-02T13:00:00;12.70;99.90
59307;DHT22;47983;53.016;-2.260;2022-11-02T13:05:19;12.80;99.90
59307;DHT22;47983;53.016;-2.260;2022-11-02T13:10:46;13.00;99.90
59307;DHT22;47983;53.016;-2.260;2022-11-02T13:16:04;13.00;99.90
59307;DHT22;47983;53.016;-2.260;2022-11-02T13:18:54;13.00;99.90
59307;DHT22;47983;53.016;-2.260;2022-11-02T13:21:31;13.00;99.90
59307;DHT22;47983;53.016;-2.260;2022-11-02T13:24:03;13.00;99.90
59307;DHT22;47983;53.016;-2.260;2022-11-02T13:26:34;13.00;99.90
59307;DHT22;47983;53.016;-2.260;2022-11-02T13:29:41;13.00;99.90
59307;DHT22;47983;53.016;-2.260;2022-11-02T13:32:17;13.10;99.90
59307;DHT22;47983;53.016;-2.260;2022-11-02T13:34:49;13.20;99.90
59307;DHT22;47983;53.016;-2.260;2022-11-02T13:37:20;13.30;99.90
59307;DHT22;47983;53.016;-2.260;2022-11-02T13:39:58;13.30;99.90
59307;DHT22;47983;53.016;-2.260;2022-11-02T13:50:57;13.30;99.90
59307;DHT22;47983;53.016;-2.260;2022-11-02T13:53:29;13.20;99.90
59307;DHT22;47983;53.016;-2.260;2022-11-02T13:56:04;13.20;99.90
59307;DHT22;47983;53.016;-2.260;2022-11-02T13:58:37;13.20;99.90
59307;DHT22;47983;53.016;-2.260;2022-11-02T14:01:09;13.20;99.90
59307;DHT22;47983;53.016;-2.260;2022-11-02T14:04:00;13.20;99.90
59307;DHT22;47983;53.016;-2.260;2022-11-02T14:06:31;13.30;99.90
59307;DHT22;47983;53.016;-2.260;2022-11-02T14:09:03;13.30;99.90
59307;DHT22;47983;53.016;-2.260;2022-11-02T14:22:16;13.50;99.90
59307;DHT22;47983;53.016;-2.260;2022-11-02T14:34:45;13.40;99.90
59307;DHT22;47983;53.016;-2.260;2022-11-02T14:48:15;13.30;99.90
59307;DHT22;47983;53.016;-2.260;2022-11-02T14:51:04;13.30;99.90
59307;DHT22;47983;53.016;-2.260;2022-11-02T14:53:35;13.30;99.90
59307;DHT22;47983;53.016;-2.260;2022-11-02T14:56:03;13.20;99.90
59307;DHT22;47983;53.016;-2.260;2022-11-02T14:58:39;13.30;99.90
59307;DHT22;47983;53.016;-2.260;2022-11-02T15:01:14;13.20;99.90
59307;DHT22;47983;53.016;-2.260;2022-11-02T15:03:43;13.20;99.90
59307;DHT22;47983;53.016;-2.260;2022-11-02T15:06:20;13.20;99.90
59307;DHT22;47983;53.016;-2.260;2022-11-02T15:09:02;13.20;99.90
59307;DHT22;47983;53.016;-2.260;2022-11-02T15:11:50;13.20;99.90
59307;DHT22;47983;53.016;-2.260;2022-11-02T15:19:41;13.10;99.90
59307;DHT22;47983;53.016;-2.260;2022-11-02T15:25:34;13.00;99.90
59307;DHT22;47983;53.016;-2.260;2022-11-02T15:28:06;13.00;99.90
59307;DHT22;47983;53.016;-2.260;2022-11-02T15:30:55;13.00;99.90
59307;DHT22;47983;53.016;-2.260;2022-11-02T15:33:44;13.00;99.90
59307;DHT22;47983;53.016;-2.260;2022-11-02T15:36:17;13.00;99.90
59307;DHT22;47983;53.016;-2.260;2022-11-02T15:38:49;12.90;99.90
59307;DHT22;47983;53.016;-2.260;2022-11-02T15:44:19;12.90;99.90
59307;DHT22;47983;53.016;-2.260;2022-11-02T15:47:15;12.80;99.90
59307;DHT22;47983;53.016;-2.260;2022-11-02T15:53:01;12.80;99.90
59307;DHT22;47983;53.016;-2.260;2022-11-02T16:01:24;12.60;99.90
59307;DHT22;47983;53.016;-2.260;2022-11-02T16:03:59;12.40;99.90
59307;DHT22;47983;53.016;-2.260;2022-11-02T16:06:35;12.30;99.90
59307;DHT22;47983;53.016;-2.260;2022-11-02T16:14:52;11.80;99.90
59307;DHT22;47983;53.016;-2.260;2022-11-02T16:17:27;11.70;99.90
59307;DHT22;47983;53.016;-2.260;2022-11-02T16:23:01;11.50;99.90
59307;DHT22;47983;53.016;-2.260;2022-11-02T16:25:42;11.40;99.90
59307;DHT22;47983;53.016;-2.260;2022-11-02T16:33:53;11.30;99.90
59307;DHT22;47983;53.016;-2.260;2022-11-02T16:36:26;11.30;99.90
59307;DHT22;47983;53.016;-2.260;2022-11-02T16:39:15;11.20;99.90
59307;DHT22;47983;53.016;-2.260;2022-11-02T16:41:48;11.20;99.90
59307;DHT22;47983;53.016;-2.260;2022-11-02T16:44:31;11.20;99.90
59307;DHT22;47983;53.016;-2.260;2022-11-02T16:52:28;11.20;99.90
59307;DHT22;47983;53.016;-2.260;2022-11-02T16:54:56;11.20;99.90
59307;DHT22;47983;53.016;-2.260;2022-11-02T16:59:58;11.20;99.90
59307;DHT22;47983;53.016;-2.260;2022-11-02T17:02:38;11.20;99.90
59307;DHT22;47983;53.016;-2.260;2022-11-02T17:05:25;11.20;99.90
59307;DHT22;47983;53.016;-2.260;2022-11-02T17:08:07;11.20;99.90
59307;DHT22;47983;53.016;-2.260;2022-11-02T17:10:37;11.20;99.90
59307;DHT22;47983;53.016;-2.260;2022-11-02T17:13:12;11.10;99.90
59307;DHT22;47983;53.016;-2.260;2022-11-02T17:15:49;11.20;99.90
59307;DHT22;47983;53.016;-2.260;2022-11-02T17:23:46;11.20;99.90
59307;DHT22;47983;53.016;-2.260;2022-11-02T17:26:24;11.20;99.90
59307;DHT22;47983;53.016;-2.260;2022-11-02T17:31:53;11.20;99.90
59307;DHT22;47983;53.016;-2.260;2022-11-02T17:34:23;11.30;99.90
59307;DHT22;47983;53.016;-2.260;2022-11-02T17:36:50;11.30;99.90
59307;DHT22;47983;53.016;-2.260;2022-11-02T17:39:19;11.30;99.90
59307;DHT22;47983;53.016;-2.260;2022-11-02T17:41:53;11.30;99.90
59307;DHT22;47983;53.016;-2.260;2022-11-02T17:44:40;11.40;99.90
59307;DHT22;47983;53.016;-2.260;2022-11-02T17:47:13;11.40;99.90
59307;DHT22;47983;53.016;-2.260;2022-11-02T17:49:40;11.40;99.90
59307;DHT22;47983;53.016;-2.260;2022-11-02T17:52:13;11.40;99.90
59307;DHT22;47983;53.016;-2.260;2022-11-02T17:54:42;11.50;99.90
59307;DHT22;47983;53.016;-2.260;2022-11-02T17:57:12;11.50;99.90
59307;DHT22;47983;53.016;-2.260;2022-11-02T17:59:40;11.50;99.90
59307;DHT22;47983;53.016;-2.260;2022-11-02T18:02:12;11.50;99.90
59307;DHT22;47983;53.016;-2.260;2022-11-02T18:04:40;11.50;99.90
59307;DHT22;47983;53.016;-2.260;2022-11-02T18:07:13;11.50;99.90
59307;DHT22;47983;53.016;-2.260;2022-11-02T18:09:40;11.50;99.90
59307;DHT22;47983;53.016;-2.260;2022-11-02T18:12:12;11.60;99.90
59307;DHT22;47983;53.016;-2.260;2022-11-02T18:14:40;11.60;99.90
59307;DHT22;47983;53.016;-2.260;2022-11-02T18:17:08;11.60;99.90
59307;DHT22;47983;53.016;-2.260;2022-11-02T18:19:35;11.70;99.90
59307;DHT22;47983;53.016;-2.260;2022-11-02T18:22:03;11.70;99.90
59307;DHT22;47983;53.016;-2.260;2022-11-02T18:24:31;11.70;99.90
59307;DHT22;47983;53.016;-2.260;2022-11-02T18:26:58;11.70;99.90
59307;DHT22;47983;53.016;-2.260;2022-11-02T18:29:26;11.70;99.90
59307;DHT22;47983;53.016;-2.260;2022-11-02T18:31:53;11.70;99.90
59307;DHT22;47983;53.016;-2.260;2022-11-02T18:34:21;11.80;99.90
59307;DHT22;47983;53.016;-2.260;2022-11-02T18:36:49;11.80;99.90
59307;DHT22;47983;53.016;-2.260;2022-11-02T18:39:17;11.80;99.90
59307;DHT22;47983;53.016;-2.260;2022-11-02T18:41:44;11.80;99.90
59307;DHT22;47983;53.016;-2.260;2022-11-02T18:44:12;11.80;99.90
59307;DHT22;47983;53.016;-2.260;2022-11-02T18:46:42;11.80;99.90
59307;DHT22;47983;53.016;-2.260;2022-11-02T18:49:09;11.70;99.90
59307;DHT22;47983;53.016;-2.260;2022-11-02T18:51:37;11.80;99.90
59307;DHT22;47983;53.016;-2.260;2022-11-02T18:54:10;11.70;99.90
59307;DHT22;47983;53.016;-2.260;2022-11-02T18:56:38;11.70;99.90
59307;DHT22;47983;53.016;-2.260;2022-11-02T18:59:06;11.70;99.90
59307;DHT22;47983;53.016;-2.260;2022-11-02T19:01:37;11.70;99.90
59307;DHT22;47983;53.016;-2.260;2022-11-02T19:04:05;11.70;99.90
59307;DHT22;47983;53.016;-2.260;2022-11-02T19:06:33;11.70;99.90